Richland, South Carolina
Current Conditions -  °F | °C
As of 12:54 PM on Thursday 18 Dec 2014 (Local Time) from KCEU Reporting Station
Broken Clouds Broken Clouds  
Wind Chill: 56°   Ceiling: 7000
Heat Index: 56°   Visibility: 10mi
Dew Point: 22°   Wind: 0mph
Humidity: 27%   Direction: NA
Pressure: 30.13"   Gusts: NA
Location:  34.68°N, 83.03°W
Report Text: KCEU 181754Z AUTO 00000KT 10SM BKN070 13/M06 A3013 RMK AO2 SLP202 T01331056 10133 20028 58019
Loading
Personal Weather Stations






























Interactive Weather Map New forecast layout! Learn more

10-Day Weather Forecast

Advertisements
Track Severe Weather on mobile